Sao Jose do Campestre, Brazil
Current Conditions -  °F | °C
As of 9:00 AM on Sunday 23 Nov 2014 (Local Time) from SBNT Reporting Station
Broken Clouds Broken Clouds  
Wind Chill: 84°   Ceiling: 2700
Heat Index: 87°   Visibility: 6mi
Dew Point: 68°   Wind: 15mph
Humidity: 58%   Direction: 110°ESE
Pressure: 29.94"   Gusts: NA
Location:  6.32°S, 35.71°W
Report Text: SBNT 231200Z 11013KT 9999 BKN027 29/20 Q1014
Loading
Personal Weather Stations






























Interactive Weather Map New forecast layout! Learn more

10-Day Weather Forecast

Advertisements
Track Severe Weather on mobile